createdAt,value
2023-01-26T00:03:10.069Z,99.20
2023-01-26T00:07:11.976Z,98.60
2023-01-26T00:11:16.813Z,98.10
2023-01-26T00:15:18.776Z,97.70
2023-01-26T00:19:20.752Z,97.40
2023-01-26T00:23:22.659Z,97.20
2023-01-26T00:27:24.681Z,97.20
2023-01-26T00:31:28.355Z,97.20
2023-01-26T00:35:30.310Z,96.80
2023-01-26T00:39:32.257Z,96.80
2023-01-26T00:43:36.013Z,97.00
2023-01-26T00:47:37.906Z,97.00
2023-01-26T00:51:39.995Z,97.40
2023-01-26T00:55:41.882Z,97.30
2023-01-26T00:59:43.823Z,97.30
2023-01-26T01:03:45.927Z,97.20
2023-01-26T01:07:47.803Z,97.20
2023-01-26T01:11:49.970Z,97.10
2023-01-26T01:15:51.918Z,97.20
2023-01-26T01:19:53.822Z,97.80
2023-01-26T01:23:56.811Z,97.90
2023-01-26T01:27:58.789Z,97.90
2023-01-26T01:32:00.770Z,97.60
2023-01-26T01:36:06.086Z,97.50
2023-01-26T01:40:13.517Z,97.50
2023-01-26T01:44:25.986Z,97.30
2023-01-26T01:48:27.775Z,97.10
2023-01-26T01:52:31.435Z,96.80
2023-01-26T01:56:35.042Z,96.90
2023-01-26T02:00:36.896Z,96.80
2023-01-26T02:04:38.980Z,96.70
2023-01-26T02:08:45.367Z,96.50
2023-01-26T02:12:56.620Z,96.60
2023-01-26T02:16:58.554Z,96.50
2023-01-26T02:21:10.127Z,96.60
2023-01-26T02:25:32.264Z,96.10
2023-01-26T02:29:34.257Z,96.30
2023-01-26T02:33:36.782Z,96.40
2023-01-26T02:37:40.413Z,96.50
2023-01-26T02:42:02.794Z,96.80
2023-01-26T02:46:05.234Z,96.60
2023-01-26T02:50:12.214Z,96.40
2023-01-26T02:54:34.310Z,96.30
2023-01-26T02:58:36.750Z,96.50
2023-01-26T03:02:40.816Z,96.40
2023-01-26T03:06:42.954Z,96.20
2023-01-26T03:10:47.601Z,96.20
2023-01-26T03:15:09.651Z,96.40
2023-01-26T03:19:35.546Z,96.40
2023-01-26T03:24:01.808Z,96.40
2023-01-26T03:28:04.071Z,96.40
2023-01-26T03:32:07.459Z,96.50
2023-01-26T03:36:09.652Z,96.60
2023-01-26T03:40:31.961Z,96.80
2023-01-26T03:44:52.819Z,96.80
2023-01-26T03:49:13.200Z,96.80
2023-01-26T03:53:40.055Z,96.60
2023-01-26T03:57:44.535Z,96.60
2023-01-26T04:02:05.894Z,96.30
2023-01-26T04:06:28.041Z,96.30
2023-01-26T04:10:29.995Z,95.80
2023-01-26T04:14:50.863Z,95.90
2023-01-26T04:19:16.535Z,95.70
2023-01-26T04:23:19.462Z,95.80
2023-01-26T04:27:23.100Z,95.80
2023-01-26T04:31:25.143Z,95.60
2023-01-26T04:35:27.129Z,95.50
2023-01-26T04:39:29.389Z,95.50
2023-01-26T04:43:32.044Z,95.50
2023-01-26T04:47:34.401Z,95.50
2023-01-26T04:51:37.527Z,95.50
2023-01-26T04:55:39.513Z,95.80
2023-01-26T04:59:41.605Z,95.60
2023-01-26T05:03:43.799Z,95.30
2023-01-26T05:07:50.399Z,95.50
2023-01-26T05:11:52.618Z,95.30
2023-01-26T05:16:33.288Z,95.30
2023-01-26T05:20:42.285Z,95.40
2023-01-26T05:24:50.855Z,95.40
2023-01-26T05:29:02.268Z,95.40
2023-01-26T05:33:06.039Z,95.30
2023-01-26T05:37:08.935Z,95.10
2023-01-26T05:41:12.285Z,95.20
2023-01-26T05:45:46.574Z,95.30
2023-01-26T05:49:50.302Z,95.00
2023-01-26T05:53:56.532Z,95.20
2023-01-26T05:57:58.462Z,95.30
2023-01-26T06:02:01.092Z,95.30
2023-01-26T06:06:03.092Z,95.60
2023-01-26T06:10:23.760Z,95.30
2023-01-26T06:14:49.893Z,95.20
2023-01-26T06:18:52.008Z,95.50
2023-01-26T06:22:54.364Z,95.50
2023-01-26T06:26:56.308Z,95.60
2023-01-26T06:31:06.251Z,95.70
2023-01-26T06:35:08.885Z,96.20
2023-01-26T06:39:12.541Z,95.90
2023-01-26T06:43:14.536Z,95.80
2023-01-26T06:47:17.583Z,95.90
2023-01-26T06:51:20.161Z,95.90
2023-01-26T06:55:30.090Z,95.90
2023-01-26T06:59:49.687Z,95.80
2023-01-26T07:04:07.132Z,95.70
2023-01-26T07:08:09.054Z,95.80
2023-01-26T07:12:10.971Z,95.70
2023-01-26T07:16:15.273Z,95.60
2023-01-26T07:20:17.339Z,95.50
2023-01-26T07:24:21.927Z,95.80
2023-01-26T07:28:25.837Z,95.90
2023-01-26T07:32:27.760Z,95.80
2023-01-26T07:36:29.806Z,95.90
2023-01-26T07:40:34.375Z,95.90
2023-01-26T07:44:36.326Z,95.80
2023-01-26T07:48:38.496Z,95.80
2023-01-26T07:52:40.851Z,95.80
2023-01-26T07:56:44.191Z,95.60
2023-01-26T08:00:49.062Z,95.40
2023-01-26T08:04:51.046Z,95.40
2023-01-26T08:08:55.674Z,95.30
2023-01-26T08:13:00.834Z,95.40
2023-01-26T08:17:02.986Z,95.20
2023-01-26T08:21:05.198Z,94.60
2023-01-26T08:25:07.569Z,94.80
2023-01-26T08:29:09.408Z,94.80
2023-01-26T08:33:11.247Z,94.00
2023-01-26T08:37:13.094Z,93.70
2023-01-26T08:41:15.033Z,94.60
2023-01-26T08:45:17.221Z,94.70
2023-01-26T08:49:19.249Z,94.20
2023-01-26T08:53:21.274Z,94.20
2023-01-26T08:57:23.283Z,94.60
2023-01-26T09:01:25.296Z,94.20
2023-01-26T09:05:28.346Z,94.30
2023-01-26T09:09:30.277Z,94.40
2023-01-26T09:13:32.332Z,94.10
2023-01-26T09:17:34.385Z,93.90
2023-01-26T09:21:36.291Z,93.80
2023-01-26T09:25:38.906Z,94.10
2023-01-26T09:29:41.010Z,94.00
2023-01-26T09:33:44.919Z,95.30
2023-01-26T09:37:47.339Z,95.50
2023-01-26T09:42:21.602Z,94.70
2023-01-26T09:46:40.352Z,94.60
2023-01-26T09:50:52.439Z,95.30
2023-01-26T09:54:57.979Z,94.80
2023-01-26T09:59:38.837Z,94.60
2023-01-26T10:03:49.413Z,95.20
2023-01-26T10:07:51.467Z,94.60
2023-01-26T10:12:07.693Z,95.30
2023-01-26T10:16:12.114Z,94.90
2023-01-26T10:20:32.395Z,95.30
2023-01-26T10:24:35.029Z,94.70
2023-01-26T10:28:37.037Z,95.10
2023-01-26T10:32:42.008Z,96.70
2023-01-26T10:36:46.949Z,96.00
2023-01-26T10:40:48.909Z,94.80
2023-01-26T10:44:51.297Z,94.90
2023-01-26T10:49:01.874Z,94.90
2023-01-26T10:53:04.980Z,94.20
2023-01-26T10:57:37.287Z,94.30
2023-01-26T11:01:57.656Z,94.50
2023-01-26T11:06:15.913Z,94.30
2023-01-26T11:10:24.266Z,95.30
2023-01-26T11:14:26.954Z,94.90
2023-01-26T11:18:46.656Z,95.40
2023-01-26T11:23:00.495Z,96.00
2023-01-26T11:27:43.037Z,96.20
2023-01-26T11:31:58.058Z,95.80
2023-01-26T11:36:07.509Z,95.70
2023-01-26T11:40:15.326Z,96.70
2023-01-26T11:44:35.426Z,98.70
2023-01-26T11:48:45.238Z,98.20
2023-01-26T11:53:24.855Z,97.80
2023-01-26T11:57:57.040Z,95.80
2023-01-26T12:02:04.652Z,95.20
2023-01-26T12:06:12.726Z,94.80
2023-01-26T12:10:15.668Z,95.20
2023-01-26T12:14:39.165Z,94.60
2023-01-26T12:19:05.455Z,94.80
2023-01-26T12:23:25.596Z,94.50
2023-01-26T12:27:34.961Z,94.70
2023-01-26T12:31:57.949Z,95.40
2023-01-26T12:36:25.550Z,95.10
2023-01-26T12:40:36.367Z,95.20
2023-01-26T12:45:02.425Z,95.00
2023-01-26T12:49:18.130Z,95.70
2023-01-26T12:53:24.194Z,95.30
2023-01-26T12:57:33.800Z,96.30
2023-01-26T13:01:41.749Z,96.00
2023-01-26T13:06:10.197Z,95.90
2023-01-26T13:10:16.087Z,95.10
2023-01-26T13:14:25.442Z,94.70
2023-01-26T13:18:48.332Z,94.70
2023-01-26T13:22:50.980Z,94.60
2023-01-26T13:26:57.595Z,94.60
2023-01-26T13:31:07.097Z,94.80
2023-01-26T13:35:12.932Z,94.60
2023-01-26T13:39:36.297Z,94.50
2023-01-26T13:43:43.496Z,94.40
2023-01-26T13:47:47.868Z,94.30
2023-01-26T13:51:49.871Z,94.40
2023-01-26T13:55:58.255Z,94.20
2023-01-26T14:00:01.105Z,94.50
2023-01-26T14:04:06.018Z,95.10
2023-01-26T14:08:15.831Z,95.60
2023-01-26T14:12:28.162Z,95.70
2023-01-26T14:16:31.574Z,95.40
2023-01-26T14:20:39.797Z,95.30
2023-01-26T14:24:43.185Z,95.00
2023-01-26T14:28:46.251Z,94.70
2023-01-26T14:32:49.014Z,95.30
2023-01-26T14:37:13.931Z,95.30
2023-01-26T14:41:22.846Z,95.60
2023-01-26T14:45:32.345Z,95.10
2023-01-26T14:49:46.420Z,94.90
2023-01-26T14:53:55.263Z,95.00
2023-01-26T14:57:58.146Z,94.70
2023-01-26T15:02:21.681Z,95.10
2023-01-26T15:06:28.342Z,96.40
2023-01-26T15:10:55.236Z,96.00
2023-01-26T15:15:00.892Z,96.20
2023-01-26T15:19:08.405Z,95.50
2023-01-26T15:23:34.649Z,94.90
2023-01-26T15:27:37.202Z,95.30
2023-01-26T15:31:41.828Z,96.20
2023-01-26T15:35:58.099Z,95.60
2023-01-26T15:40:00.139Z,95.70
2023-01-26T15:44:02.199Z,95.10
2023-01-26T15:48:04.367Z,95.00
2023-01-26T15:52:15.853Z,94.90
2023-01-26T15:56:17.864Z,94.60
2023-01-26T16:00:20.043Z,94.30
2023-01-26T16:04:22.187Z,94.20
2023-01-26T16:08:24.145Z,94.50
2023-01-26T16:12:31.894Z,94.80
2023-01-26T16:16:34.386Z,94.20
2023-01-26T16:20:38.292Z,94.10
2023-01-26T16:24:40.747Z,94.70
2023-01-26T16:28:43.140Z,94.70
2023-01-26T16:32:45.412Z,95.00
2023-01-26T16:36:47.335Z,95.10
2023-01-26T16:40:49.602Z,95.90
2023-01-26T16:44:51.614Z,96.00
2023-01-26T16:48:53.852Z,95.70
2023-01-26T16:52:55.747Z,95.80
2023-01-26T16:56:57.828Z,95.50
2023-01-26T17:00:59.921Z,95.10
2023-01-26T17:05:01.933Z,95.20
2023-01-26T17:09:04.926Z,95.80
2023-01-26T17:13:07.469Z,96.20
2023-01-26T17:17:10.393Z,96.20
2023-01-26T17:21:13.666Z,95.70
2023-01-26T17:25:17.817Z,95.90
2023-01-26T17:29:19.888Z,96.20
2023-01-26T17:33:21.793Z,95.50
2023-01-26T17:37:27.181Z,95.40
2023-01-26T17:41:29.160Z,95.70
2023-01-26T17:45:31.074Z,95.50
2023-01-26T17:49:33.048Z,95.30
2023-01-26T17:53:41.920Z,95.30
2023-01-26T17:57:44.259Z,96.60
2023-01-26T18:01:46.513Z,96.60
2023-01-26T18:05:52.656Z,97.40
2023-01-26T18:09:54.639Z,96.50
2023-01-26T18:13:57.664Z,95.80
2023-01-26T18:17:59.733Z,95.50
2023-01-26T18:22:01.638Z,95.80
2023-01-26T18:26:05.027Z,96.30
2023-01-26T18:30:07.665Z,96.20
2023-01-26T18:34:11.350Z,96.40
2023-01-26T18:38:13.373Z,96.30
2023-01-26T18:42:15.272Z,96.20
2023-01-26T18:46:17.428Z,95.70
2023-01-26T18:50:19.514Z,96.00
2023-01-26T18:54:21.511Z,96.50
2023-01-26T19:04:43.469Z,95.50
2023-01-26T19:08:57.649Z,96.30
2023-01-26T19:12:59.587Z,96.00
2023-01-26T19:17:02.083Z,95.90
2023-01-26T19:21:04.912Z,95.40
2023-01-26T19:25:07.301Z,95.50
2023-01-26T19:29:11.084Z,95.20
2023-01-26T19:33:25.154Z,95.70
2023-01-26T19:37:27.074Z,96.00
2023-01-26T19:41:29.594Z,96.30
2023-01-26T19:45:31.600Z,96.90
2023-01-26T19:49:33.536Z,96.70
2023-01-26T19:53:38.943Z,96.40
2023-01-26T19:57:40.911Z,97.10
2023-01-26T20:01:43.287Z,96.80
2023-01-26T20:05:45.247Z,96.70
2023-01-26T20:09:47.280Z,96.40
2023-01-26T20:13:56.785Z,97.20
2023-01-26T20:17:58.679Z,97.90
2023-01-26T20:22:01.395Z,97.30
2023-01-26T20:26:05.918Z,96.80
2023-01-26T20:30:10.110Z,97.40
2023-01-26T20:34:13.685Z,97.10
2023-01-26T20:38:15.713Z,96.50
2023-01-26T20:42:18.964Z,95.60
2023-01-26T20:46:21.076Z,95.20
2023-01-26T20:50:23.057Z,94.40
2023-01-26T20:54:25.123Z,95.00
2023-01-26T20:58:27.010Z,94.90
2023-01-26T21:02:28.860Z,95.20
2023-01-26T21:06:31.040Z,94.90
2023-01-26T21:10:34.935Z,94.60
2023-01-26T21:14:36.917Z,95.20
2023-01-26T21:18:38.905Z,95.50
2023-01-26T21:22:40.792Z,95.30
2023-01-26T21:26:42.837Z,96.40
2023-01-26T21:30:44.792Z,96.50
2023-01-26T21:34:46.930Z,97.20
2023-01-26T21:38:51.760Z,96.70
2023-01-26T21:42:53.602Z,96.40
2023-01-26T21:47:01.627Z,97.00
2023-01-26T21:51:22.540Z,96.80
2023-01-26T21:55:24.391Z,96.00
2023-01-26T21:59:26.534Z,95.90
2023-01-26T22:03:28.419Z,96.00
2023-01-26T22:07:32.128Z,95.80
2023-01-26T22:11:34.249Z,95.20
2023-01-26T22:15:36.156Z,95.00
2023-01-26T22:19:37.955Z,94.60
2023-01-26T22:23:41.010Z,94.40
2023-01-26T22:27:43.068Z,94.40
2023-01-26T22:31:45.278Z,94.10
2023-01-26T22:35:47.267Z,93.90
2023-01-26T22:39:49.928Z,93.80
2023-01-26T22:43:54.401Z,93.70
2023-01-26T22:47:56.359Z,93.80
2023-01-26T22:51:58.380Z,94.00
2023-01-26T22:56:00.328Z,93.80
2023-01-26T23:00:02.733Z,93.50
2023-01-26T23:04:04.748Z,93.60
2023-01-26T23:08:06.886Z,93.60
2023-01-26T23:12:08.897Z,93.80
2023-01-26T23:16:11.858Z,93.70
2023-01-26T23:20:14.150Z,93.50
2023-01-26T23:24:16.154Z,93.50
2023-01-26T23:28:32.975Z,93.60
2023-01-26T23:32:34.896Z,93.80
2023-01-26T23:36:36.799Z,93.70
2023-01-26T23:40:39.256Z,93.90
2023-01-26T23:44:41.154Z,94.10
2023-01-26T23:48:43.091Z,93.90
2023-01-26T23:52:45.008Z,93.70
2023-01-26T23:56:47.477Z,93.90
